createdAt,value
2015-03-04T18:53:49.698Z,683
2015-03-04T18:54:07.372Z,683
2015-03-04T18:54:25.702Z,683
2015-03-04T18:54:43.383Z,683
2015-03-04T18:55:01.713Z,682
2015-03-04T18:55:19.389Z,682
2015-03-04T18:55:37.727Z,682
2015-03-04T18:55:56.066Z,682
2015-03-04T18:56:14.392Z,682
2015-03-04T18:56:32.862Z,682
2015-03-04T18:56:51.199Z,682
2015-03-04T18:57:09.531Z,681
2015-03-04T18:57:27.220Z,680
2015-03-04T18:57:44.896Z,681
2015-03-04T18:58:03.235Z,680
2015-03-04T18:58:21.566Z,682
2015-03-04T18:58:39.906Z,681
2015-03-04T18:58:58.232Z,681
2015-03-04T18:59:15.906Z,680
2015-03-04T18:59:33.582Z,682
2015-03-04T18:59:51.914Z,681
2015-03-04T19:00:10.249Z,681
2015-03-04T19:00:28.577Z,682
2015-03-04T19:00:46.261Z,682
2015-03-04T19:01:04.591Z,681
2015-03-04T19:01:22.269Z,681
2015-03-04T19:01:40.608Z,682
2015-03-04T19:01:58.941Z,681
2015-03-04T19:02:16.616Z,681
2015-03-04T19:02:34.945Z,681
2015-03-04T19:02:53.271Z,682
2015-03-04T19:03:11.600Z,681
2015-03-04T19:03:29.929Z,680
2015-03-04T19:03:46.961Z,681
2015-03-04T19:04:05.289Z,681
2015-03-04T19:04:23.622Z,681
2015-03-04T19:04:41.953Z,681
2015-03-04T19:05:00.287Z,665
2015-03-04T19:05:18.615Z,666
2015-03-04T19:05:36.952Z,651
2015-03-04T19:05:54.629Z,634
2015-03-04T19:06:12.299Z,652
2015-03-04T19:06:29.960Z,644
2015-03-04T19:06:48.293Z,680
2015-03-04T19:07:06.619Z,3
2015-03-04T19:07:24.303Z,3
2015-03-04T19:07:42.634Z,3
2015-03-04T19:08:00.970Z,3
2015-03-04T19:08:19.298Z,3
2015-03-04T19:08:37.633Z,3
2015-03-04T19:08:55.957Z,3
2015-03-04T19:09:14.286Z,3
2015-03-04T19:09:32.612Z,3
2015-03-04T19:09:50.942Z,3
2015-03-04T19:10:09.277Z,3
2015-03-04T19:10:27.608Z,3
2015-03-04T19:10:45.938Z,3
2015-03-04T19:11:04.269Z,3
2015-03-04T19:11:22.601Z,4
2015-03-04T19:11:40.930Z,3
2015-03-04T19:11:59.260Z,3
2015-03-04T19:12:16.928Z,4
2015-03-04T19:12:34.610Z,3
2015-03-04T19:12:52.939Z,3
2015-03-04T19:13:11.265Z,3
2015-03-04T19:13:29.597Z,3
2015-03-04T19:13:47.931Z,3
2015-03-04T19:14:06.262Z,3
2015-03-04T19:14:24.599Z,3
2015-03-04T19:14:42.922Z,3
2015-03-04T19:15:01.248Z,3
2015-03-04T19:15:19.577Z,3
2015-03-04T19:15:37.904Z,4
2015-03-04T19:15:56.235Z,3
2015-03-04T19:16:14.693Z,3
2015-03-04T19:16:32.368Z,3
2015-03-04T19:16:50.699Z,3
2015-03-04T19:17:09.027Z,3
2015-03-04T19:17:27.358Z,3
2015-03-04T19:17:45.684Z,3
2015-03-04T19:18:04.014Z,3
2015-03-04T19:18:22.335Z,3
2015-03-04T19:18:40.661Z,3
2015-03-04T19:18:58.330Z,3
2015-03-04T19:19:16.667Z,4
2015-03-04T19:19:34.995Z,3
2015-03-04T19:19:53.326Z,4
2015-03-04T19:20:11.653Z,3
2015-03-04T19:20:29.989Z,3
2015-03-04T19:20:48.316Z,3
2015-03-04T19:21:06.650Z,3
2015-03-04T19:21:24.982Z,3
2015-03-04T19:21:42.662Z,4
2015-03-04T19:22:00.336Z,3
2015-03-04T19:22:18.666Z,3
2015-03-04T19:22:35.692Z,3
2015-03-04T19:22:54.023Z,3
2015-03-04T19:23:12.359Z,3
2015-03-04T19:23:30.537Z,3
2015-03-04T19:23:48.210Z,3
2015-03-04T19:24:05.890Z,4
2015-03-04T19:24:24.351Z,3
2015-03-04T19:24:42.026Z,4
2015-03-04T19:25:00.357Z,3
2015-03-04T19:25:18.683Z,3
2015-03-04T19:25:36.365Z,3
2015-03-04T19:25:54.827Z,3
2015-03-04T19:26:13.157Z,3
2015-03-04T19:26:31.490Z,3
2015-03-04T19:26:49.158Z,4
2015-03-04T19:27:07.486Z,4
2015-03-04T19:27:25.816Z,3
2015-03-04T19:27:44.146Z,4
2015-03-04T19:28:02.470Z,3
2015-03-04T19:28:20.149Z,4
2015-03-04T19:28:38.483Z,4
2015-03-04T19:28:56.816Z,3
2015-03-04T19:29:15.164Z,3
2015-03-04T19:29:33.478Z,3
2015-03-04T19:29:51.149Z,4
2015-03-04T19:30:09.480Z,3
2015-03-04T19:30:27.817Z,4
2015-03-04T19:30:46.142Z,4
2015-03-04T19:31:04.466Z,4
2015-03-04T19:31:22.800Z,3
2015-03-04T19:31:41.132Z,3
2015-03-04T19:31:59.461Z,3
2015-03-04T19:32:17.783Z,3
2015-03-04T19:32:36.115Z,3
2015-03-04T19:32:54.445Z,3
2015-03-04T19:33:12.771Z,3
2015-03-04T19:33:31.103Z,3
2015-03-04T19:33:49.431Z,3
2015-03-04T19:34:07.759Z,3
2015-03-04T19:34:26.086Z,4
2015-03-04T19:34:44.417Z,3
2015-03-04T19:35:02.748Z,4
2015-03-04T19:35:21.076Z,4
2015-03-04T19:35:38.756Z,3
2015-03-04T19:35:57.080Z,3
2015-03-04T19:36:15.410Z,4
2015-03-04T19:36:33.089Z,3
2015-03-04T19:36:51.421Z,3
2015-03-04T19:37:09.757Z,3
2015-03-04T19:37:28.089Z,3
2015-03-04T19:37:45.786Z,3
2015-03-04T19:38:04.095Z,4
2015-03-04T19:38:22.424Z,3
2015-03-04T19:38:40.753Z,4
2015-03-04T19:38:59.083Z,4
2015-03-04T19:39:17.414Z,4
2015-03-04T19:39:35.748Z,3
2015-03-04T19:39:54.081Z,3
2015-03-04T19:40:12.410Z,2
2015-03-04T19:40:30.091Z,3
2015-03-04T19:40:48.433Z,4
2015-03-04T19:41:06.094Z,3
2015-03-04T19:41:23.776Z,3
2015-03-04T19:41:42.099Z,4
2015-03-04T19:41:59.776Z,3
2015-03-04T19:42:18.238Z,4
2015-03-04T19:42:36.566Z,3
2015-03-04T19:42:54.891Z,3
2015-03-04T19:43:12.563Z,3
2015-03-04T19:43:29.587Z,4
2015-03-04T19:43:47.914Z,4
2015-03-04T19:44:05.588Z,3
2015-03-04T19:44:23.915Z,4
2015-03-04T19:44:42.249Z,4
2015-03-04T19:45:00.579Z,3
2015-03-04T19:45:18.907Z,4
2015-03-04T19:45:37.240Z,3
2015-03-04T19:45:55.568Z,3
2015-03-04T19:46:13.898Z,4
2015-03-04T19:46:31.707Z,4
2015-03-04T19:46:50.037Z,4
2015-03-04T19:47:08.366Z,4
2015-03-04T19:47:26.694Z,3
2015-03-04T19:47:45.022Z,3
2015-03-04T19:48:03.357Z,3
2015-03-04T19:48:21.681Z,4
2015-03-04T19:48:40.012Z,4
2015-03-04T19:48:57.696Z,3
2015-03-04T19:49:16.023Z,3
2015-03-04T19:49:34.347Z,3
2015-03-04T19:49:52.677Z,3
2015-03-04T19:50:11.008Z,4
2015-03-04T19:50:29.339Z,4
2015-03-04T19:50:47.671Z,4
2015-03-04T19:51:06.005Z,3
2015-03-04T19:51:24.336Z,4
2015-03-04T19:51:42.663Z,4
2015-03-04T19:52:00.994Z,3
2015-03-04T19:52:18.671Z,4
2015-03-04T19:52:37.007Z,4
2015-03-04T19:52:54.675Z,4
2015-03-04T19:53:13.003Z,3
2015-03-04T19:53:30.675Z,4
2015-03-04T19:53:48.352Z,4
2015-03-04T19:54:06.039Z,3
2015-03-04T19:54:24.364Z,4
2015-03-04T19:54:42.688Z,3
2015-03-04T19:55:01.019Z,4
2015-03-04T19:55:19.351Z,4
2015-03-04T19:55:37.680Z,3
2015-03-04T19:55:56.010Z,3
2015-03-04T19:56:14.340Z,4
2015-03-04T19:56:32.678Z,3
2015-03-04T19:56:51.012Z,4
2015-03-04T19:57:09.334Z,3
2015-03-04T19:57:27.807Z,3
2015-03-04T19:57:46.133Z,3
2015-03-04T19:58:04.461Z,3
2015-03-04T19:58:22.790Z,3
2015-03-04T19:58:41.124Z,4
2015-03-04T19:58:59.456Z,4
2015-03-04T19:59:17.783Z,4
2015-03-04T19:59:36.137Z,4
2015-03-04T19:59:54.453Z,3
2015-03-04T20:00:12.801Z,3
2015-03-04T20:00:30.473Z,3
2015-03-04T20:00:48.804Z,3
2015-03-04T20:01:07.132Z,4
2015-03-04T20:01:24.933Z,3
2015-03-04T20:01:43.263Z,4
2015-03-04T20:02:01.593Z,3
2015-03-04T20:02:19.925Z,4
2015-03-04T20:02:38.258Z,3
2015-03-04T20:02:56.585Z,4
2015-03-04T20:03:14.266Z,4
2015-03-04T20:03:32.600Z,4
2015-03-04T20:03:50.926Z,4
2015-03-04T20:04:09.253Z,3
2015-03-04T20:04:27.717Z,3
2015-03-04T20:04:46.043Z,3
2015-03-04T20:05:04.372Z,3
2015-03-04T20:05:22.702Z,3
2015-03-04T20:05:41.030Z,4
2015-03-04T20:05:58.703Z,4
2015-03-04T20:06:16.377Z,3
2015-03-04T20:06:34.707Z,3
2015-03-04T20:06:53.037Z,3
2015-03-04T20:07:11.363Z,3
2015-03-04T20:07:29.699Z,3
2015-03-04T20:07:48.030Z,3
2015-03-04T20:08:06.361Z,3
2015-03-04T20:08:24.691Z,3
2015-03-04T20:08:43.024Z,3
2015-03-04T20:09:01.350Z,3
2015-03-04T20:09:19.683Z,3
2015-03-04T20:09:38.009Z,3
2015-03-04T20:09:56.337Z,3
2015-03-04T20:10:14.664Z,3
2015-03-04T20:10:32.999Z,3
2015-03-04T20:10:50.668Z,3
2015-03-04T20:11:08.998Z,3
2015-03-04T20:11:27.344Z,3
2015-03-04T20:11:45.662Z,3
2015-03-04T20:12:03.342Z,3
2015-03-04T20:12:21.015Z,3
2015-03-04T20:12:39.347Z,3
2015-03-04T20:12:57.672Z,3
2015-03-04T20:13:15.996Z,3
2015-03-04T20:13:34.334Z,3
2015-03-04T20:13:52.666Z,3
2015-03-04T20:14:10.995Z,3
2015-03-04T20:14:29.318Z,3
2015-03-04T20:14:46.341Z,3
2015-03-04T20:15:03.493Z,3
2015-03-04T20:15:21.170Z,3
2015-03-04T20:15:38.853Z,3
2015-03-04T20:15:57.178Z,3
2015-03-04T20:16:15.509Z,3
2015-03-04T20:16:33.838Z,3
2015-03-04T20:16:52.168Z,3
2015-03-04T20:17:10.494Z,3
2015-03-04T20:17:28.826Z,3
2015-03-04T20:17:47.152Z,3
2015-03-04T20:18:04.834Z,3
2015-03-04T20:18:23.165Z,3
2015-03-04T20:18:41.496Z,3
2015-03-04T20:18:59.822Z,3
2015-03-04T20:19:18.143Z,3
2015-03-04T20:19:36.610Z,3
2015-03-04T20:19:54.282Z,3
2015-03-04T20:20:12.616Z,3
2015-03-04T20:20:30.941Z,3
2015-03-04T20:20:49.274Z,3
2015-03-04T20:21:07.599Z,3
2015-03-04T20:21:25.932Z,3
2015-03-04T20:21:44.260Z,3
2015-03-04T20:22:02.591Z,3
2015-03-04T20:22:21.053Z,3
2015-03-04T20:22:38.736Z,3
2015-03-04T20:22:57.067Z,3
2015-03-04T20:23:15.399Z,3
2015-03-04T20:23:33.735Z,3
2015-03-04T20:23:52.065Z,3
2015-03-04T20:24:10.396Z,3
2015-03-04T20:24:28.727Z,3
2015-03-04T20:24:46.405Z,3
2015-03-04T20:25:04.080Z,3
2015-03-04T20:25:22.420Z,3
2015-03-04T20:25:40.743Z,3
2015-03-04T20:25:58.920Z,3
2015-03-04T20:26:17.251Z,3
2015-03-04T20:26:35.583Z,3
2015-03-04T20:26:53.912Z,3
2015-03-04T20:27:12.240Z,3
2015-03-04T20:27:29.926Z,3
2015-03-04T20:27:47.597Z,3
2015-03-04T20:28:05.928Z,3
2015-03-04T20:28:24.255Z,3
2015-03-04T20:28:42.585Z,3
2015-03-04T20:29:00.913Z,3
2015-03-04T20:29:19.242Z,3
2015-03-04T20:29:37.576Z,2
2015-03-04T20:29:55.251Z,3
2015-03-04T20:30:13.574Z,3
2015-03-04T20:30:31.907Z,3
2015-03-04T20:30:50.231Z,3
2015-03-04T20:31:07.905Z,3
2015-03-04T20:31:26.234Z,3
2015-03-04T20:31:44.571Z,3
2015-03-04T20:32:02.905Z,3
2015-03-04T20:32:21.229Z,3
2015-03-04T20:32:39.559Z,3
2015-03-04T20:32:57.886Z,3
2015-03-04T20:33:16.213Z,3
2015-03-04T20:33:33.895Z,3
2015-03-04T20:33:51.564Z,3
2015-03-04T20:34:09.243Z,3
2015-03-04T20:34:27.574Z,3
2015-03-04T20:34:45.909Z,3
2015-03-04T20:35:03.575Z,3
2015-03-04T20:35:22.034Z,3
2015-03-04T20:35:40.211Z,3
2015-03-04T20:35:57.899Z,3
2015-03-04T20:36:16.061Z,3
2015-03-04T20:36:34.394Z,3
2015-03-04T20:36:52.727Z,3
2015-03-04T20:37:11.058Z,3
2015-03-04T20:37:28.750Z,3
2015-03-04T20:37:47.054Z,3
2015-03-04T20:38:05.516Z,3
2015-03-04T20:38:23.850Z,3
2015-03-04T20:38:42.181Z,3
2015-03-04T20:39:00.514Z,3
2015-03-04T20:39:18.859Z,3
2015-03-04T20:39:37.192Z,3
2015-03-04T20:39:55.517Z,3
2015-03-04T20:40:13.851Z,3
2015-03-04T20:40:30.877Z,3
2015-03-04T20:40:49.209Z,3
2015-03-04T20:41:06.884Z,3
2015-03-04T20:41:25.213Z,3
2015-03-04T20:41:43.545Z,3
2015-03-04T20:42:01.723Z,3
2015-03-04T20:42:18.880Z,3
2015-03-04T20:42:35.902Z,3
2015-03-04T20:42:54.237Z,3
2015-03-04T20:43:11.248Z,3
2015-03-04T20:43:28.924Z,3
2015-03-04T20:43:47.260Z,3
2015-03-04T20:44:04.936Z,3
2015-03-04T20:44:23.275Z,3
2015-03-04T20:44:41.606Z,3
2015-03-04T20:44:59.934Z,3
2015-03-04T20:45:17.741Z,3
2015-03-04T20:45:35.420Z,3
2015-03-04T20:45:53.749Z,3
2015-03-04T20:46:12.079Z,3
2015-03-04T20:46:30.408Z,3
2015-03-04T20:46:48.082Z,3
2015-03-04T20:47:06.415Z,3
2015-03-04T20:47:24.745Z,3
2015-03-04T20:47:43.074Z,3
2015-03-04T20:48:01.404Z,3
2015-03-04T20:48:19.731Z,3
2015-03-04T20:48:36.759Z,3
2015-03-04T20:48:54.437Z,3
2015-03-04T20:49:12.798Z,3
2015-03-04T20:49:30.466Z,3
2015-03-04T20:49:49.303Z,3
2015-03-04T20:50:07.783Z,3
2015-03-04T20:50:26.269Z,3
2015-03-04T20:50:43.804Z,3
2015-03-04T20:51:02.318Z,3
2015-03-04T20:51:20.629Z,3
2015-03-04T20:51:38.307Z,3
2015-03-04T20:51:56.675Z,3
2015-03-04T20:52:14.350Z,3
2015-03-04T20:52:32.679Z,3
2015-03-04T20:52:50.366Z,3
2015-03-04T20:53:08.047Z,3
2015-03-04T20:53:26.377Z,3
2015-03-04T20:53:44.713Z,3
2015-03-04T20:54:03.047Z,3
2015-03-04T20:54:21.377Z,3
2015-03-04T20:54:39.708Z,3
2015-03-04T20:54:56.718Z,3
2015-03-04T20:55:15.095Z,3
2015-03-04T20:55:33.424Z,3
2015-03-04T20:55:51.107Z,3
2015-03-04T20:56:08.775Z,3
2015-03-04T20:56:27.108Z,3
2015-03-04T20:56:45.439Z,3
2015-03-04T20:57:03.776Z,3
2015-03-04T20:57:22.107Z,3
2015-03-04T20:57:40.439Z,3
2015-03-04T20:57:58.771Z,3
2015-03-04T20:58:17.100Z,3
2015-03-04T20:58:35.431Z,3
2015-03-04T20:58:53.758Z,3
2015-03-04T20:59:12.092Z,3
2015-03-04T20:59:30.426Z,3
2015-03-04T20:59:48.608Z,3
2015-03-04T21:00:06.785Z,3
2015-03-04T21:00:25.111Z,2
2015-03-04T21:00:43.442Z,2
2015-03-04T21:01:01.906Z,3
2015-03-04T21:01:18.924Z,3
2015-03-04T21:01:36.600Z,3
2015-03-04T21:01:54.932Z,3
2015-03-04T21:02:13.259Z,3
2015-03-04T21:02:31.588Z,3
2015-03-04T21:02:49.915Z,3
2015-03-04T21:03:07.579Z,3
2015-03-04T21:03:25.909Z,3
2015-03-04T21:03:44.244Z,3
2015-03-04T21:04:01.918Z,3
2015-03-04T21:04:20.244Z,3
2015-03-04T21:04:38.583Z,3
2015-03-04T21:04:56.915Z,3
2015-03-04T21:05:15.242Z,3
2015-03-04T21:05:33.567Z,3
2015-03-04T21:05:51.375Z,3
2015-03-04T21:06:09.060Z,3
2015-03-04T21:06:27.390Z,3
2015-03-04T21:06:45.721Z,2
2015-03-04T21:07:04.053Z,2
2015-03-04T21:07:22.389Z,2
2015-03-04T21:07:40.065Z,2
2015-03-04T21:07:57.746Z,2
2015-03-04T21:08:16.079Z,2
2015-03-04T21:08:34.405Z,2
2015-03-04T21:08:52.740Z,2
2015-03-04T21:09:11.072Z,2
2015-03-04T21:09:29.409Z,2
2015-03-04T21:09:47.741Z,2
2015-03-04T21:10:05.415Z,2
2015-03-04T21:10:23.746Z,2
2015-03-04T21:10:41.421Z,2
2015-03-04T21:10:59.750Z,2
2015-03-04T21:11:17.429Z,2
2015-03-04T21:11:35.763Z,3
2015-03-04T21:11:54.097Z,2
2015-03-04T21:12:12.422Z,2
2015-03-04T21:12:30.109Z,2
2015-03-04T21:12:48.435Z,2
2015-03-04T21:13:06.105Z,2
2015-03-04T21:13:24.436Z,2
2015-03-04T21:13:42.767Z,2
2015-03-04T21:14:01.098Z,2
2015-03-04T21:14:19.435Z,2
2015-03-04T21:14:37.763Z,3
2015-03-04T21:14:55.435Z,2
2015-03-04T21:15:13.767Z,2
2015-03-04T21:15:31.443Z,2
2015-03-04T21:15:49.777Z,2
2015-03-04T21:16:08.104Z,2
2015-03-04T21:16:25.781Z,2
2015-03-04T21:16:44.110Z,2
2015-03-04T21:17:02.443Z,2
2015-03-04T21:17:20.109Z,2
2015-03-04T21:17:38.572Z,2
2015-03-04T21:17:56.896Z,1
2015-03-04T21:18:15.229Z,2
2015-03-04T21:18:33.574Z,2
2015-03-04T21:18:51.887Z,2
2015-03-04T21:19:10.216Z,2
2015-03-04T21:19:27.885Z,2
2015-03-04T21:19:46.215Z,2
2015-03-04T21:20:04.543Z,2
2015-03-04T21:20:22.218Z,2
2015-03-04T21:20:40.577Z,2
2015-03-04T21:20:58.253Z,2
2015-03-04T21:21:16.585Z,2
2015-03-04T21:21:34.919Z,2
2015-03-04T21:21:53.249Z,3
2015-03-04T21:22:11.580Z,2
2015-03-04T21:22:29.886Z,2
2015-03-04T21:22:48.223Z,2
2015-03-04T21:23:06.555Z,2
2015-03-04T21:23:24.885Z,2
2015-03-04T21:23:43.354Z,2
2015-03-04T21:24:01.690Z,2
2015-03-04T21:24:20.014Z,2
2015-03-04T21:24:38.348Z,2
2015-03-04T21:24:56.023Z,2
2015-03-04T21:25:14.354Z,2
2015-03-04T21:25:32.686Z,2
2015-03-04T21:25:51.030Z,2
2015-03-04T21:26:08.702Z,2
2015-03-04T21:26:27.036Z,2
2015-03-04T21:26:45.365Z,2
2015-03-04T21:27:03.041Z,3
2015-03-04T21:27:21.370Z,2
2015-03-04T21:27:39.729Z,2
2015-03-04T21:27:58.039Z,2
2015-03-04T21:28:15.718Z,2
2015-03-04T21:28:34.046Z,2
2015-03-04T21:28:52.379Z,2
2015-03-04T21:29:10.776Z,2
2015-03-04T21:29:28.449Z,2
2015-03-04T21:29:46.133Z,2
2015-03-04T21:30:04.464Z,2
2015-03-04T21:30:22.798Z,2
2015-03-04T21:30:41.127Z,2
2015-03-04T21:30:58.791Z,2
2015-03-04T21:31:16.463Z,2
2015-03-04T21:31:34.793Z,2
2015-03-04T21:31:52.472Z,2
2015-03-04T21:32:10.147Z,3
2015-03-04T21:32:28.478Z,2
2015-03-04T21:32:46.816Z,2
2015-03-04T21:33:05.147Z,2
2015-03-04T21:33:23.477Z,2
2015-03-04T21:33:41.150Z,2
2015-03-04T21:33:59.480Z,2
2015-03-04T21:34:15.844Z,2
2015-03-04T21:34:32.864Z,2
2015-03-04T21:34:51.196Z,2
2015-03-04T21:35:09.525Z,2
2015-03-04T21:35:27.855Z,2
2015-03-04T21:35:46.183Z,2
2015-03-04T21:36:03.703Z,2
2015-03-04T21:36:22.036Z,2
2015-03-04T21:36:40.369Z,2
2015-03-04T21:36:58.699Z,2
2015-03-04T21:37:17.031Z,2
2015-03-04T21:37:35.364Z,2
2015-03-04T21:37:53.695Z,2
2015-03-04T21:38:12.025Z,2
2015-03-04T21:38:30.349Z,2
2015-03-04T21:38:47.369Z,2
2015-03-04T21:39:05.695Z,3
2015-03-04T21:39:22.713Z,2
2015-03-04T21:39:40.389Z,2
2015-03-04T21:39:58.718Z,2
2015-03-04T21:40:16.402Z,2
2015-03-04T21:40:34.729Z,2
2015-03-04T21:40:51.603Z,2
2015-03-04T21:41:10.066Z,2
2015-03-04T21:41:28.395Z,2
2015-03-04T21:41:46.861Z,2
2015-03-04T21:42:05.194Z,2
2015-03-04T21:42:22.865Z,2
2015-03-04T21:42:41.198Z,2
2015-03-04T21:42:59.535Z,2
2015-03-04T21:43:17.862Z,2
2015-03-04T21:43:36.320Z,2
2015-03-04T21:43:53.343Z,2
2015-03-04T21:44:11.012Z,2
2015-03-04T21:44:29.337Z,2
2015-03-04T21:44:47.675Z,2
2015-03-04T21:45:06.007Z,2
2015-03-04T21:45:24.337Z,2
2015-03-04T21:45:42.501Z,2
2015-03-04T21:46:00.835Z,2
2015-03-04T21:46:19.166Z,2
2015-03-04T21:46:37.491Z,2
2015-03-04T21:46:55.191Z,2
2015-03-04T21:47:12.854Z,2
2015-03-04T21:47:31.192Z,3
2015-03-04T21:47:49.519Z,2
2015-03-04T21:48:07.199Z,2
2015-03-04T21:48:25.518Z,2
2015-03-04T21:48:43.198Z,2
2015-03-04T21:49:01.543Z,2
2015-03-04T21:49:19.207Z,2
2015-03-04T21:49:37.537Z,2
2015-03-04T21:49:55.866Z,2
2015-03-04T21:50:14.196Z,2
2015-03-04T21:50:32.537Z,2
2015-03-04T21:50:50.194Z,2
2015-03-04T21:51:08.523Z,2
2015-03-04T21:51:26.851Z,2
2015-03-04T21:51:45.183Z,3
2015-03-04T21:52:03.551Z,2
2015-03-04T21:52:21.217Z,2
2015-03-04T21:52:39.542Z,2
2015-03-04T21:52:57.874Z,2
2015-03-04T21:53:16.208Z,3
2015-03-04T21:53:34.538Z,2
2015-03-04T21:53:52.214Z,2
2015-03-04T21:54:10.544Z,2
2015-03-04T21:54:28.870Z,2
2015-03-04T21:54:47.336Z,2
2015-03-04T21:55:05.670Z,2
2015-03-04T21:55:23.999Z,2
2015-03-04T21:55:42.326Z,2
2015-03-04T21:56:00.661Z,2
2015-03-04T21:56:18.992Z,2
2015-03-04T21:56:37.322Z,2
2015-03-04T21:56:54.996Z,3
2015-03-04T21:57:13.319Z,2
2015-03-04T21:57:31.651Z,2
2015-03-04T21:57:49.336Z,2
2015-03-04T21:58:07.665Z,2
2015-03-04T21:58:25.993Z,2
2015-03-04T21:58:44.324Z,2
2015-03-04T21:59:02.656Z,2
2015-03-04T21:59:20.981Z,2
2015-03-04T21:59:39.311Z,2
2015-03-04T21:59:56.985Z,2
2015-03-04T22:00:15.315Z,2
2015-03-04T22:00:33.642Z,2
2015-03-04T22:00:51.977Z,1
2015-03-04T22:01:10.309Z,2
2015-03-04T22:01:28.638Z,2
2015-03-04T22:01:46.959Z,2
2015-03-04T22:02:05.289Z,2
2015-03-04T22:02:23.617Z,2
2015-03-04T22:02:41.293Z,2
2015-03-04T22:02:58.973Z,2
2015-03-04T22:03:17.306Z,2
2015-03-04T22:03:35.635Z,2
2015-03-04T22:03:53.964Z,2
2015-03-04T22:04:12.293Z,2
2015-03-04T22:04:30.620Z,2
2015-03-04T22:04:48.957Z,2
2015-03-04T22:05:07.281Z,2
2015-03-04T22:05:25.611Z,2
2015-03-04T22:05:43.946Z,2
2015-03-04T22:06:02.278Z,2
2015-03-04T22:06:19.953Z,2
2015-03-04T22:06:37.624Z,2
2015-03-04T22:06:55.958Z,2
2015-03-04T22:07:14.288Z,2
2015-03-04T22:07:31.960Z,2
2015-03-04T22:07:50.295Z,2
2015-03-04T22:08:08.625Z,2
2015-03-04T22:08:26.954Z,2
2015-03-04T22:08:45.284Z,2
2015-03-04T22:09:03.617Z,2
2015-03-04T22:09:21.944Z,2
2015-03-04T22:09:40.274Z,2
2015-03-04T22:09:58.609Z,2
2015-03-04T22:10:17.072Z,2
2015-03-04T22:10:35.409Z,2
2015-03-04T22:10:53.741Z,2
2015-03-04T22:11:12.063Z,2
2015-03-04T22:11:30.395Z,2
2015-03-04T22:11:48.729Z,2
2015-03-04T22:12:07.060Z,2
2015-03-04T22:12:25.390Z,2
2015-03-04T22:12:43.723Z,2
2015-03-04T22:13:02.053Z,2
2015-03-04T22:13:20.385Z,2
2015-03-04T22:13:38.712Z,2
2015-03-04T22:13:57.042Z,2
2015-03-04T22:14:13.410Z,2
2015-03-04T22:14:31.741Z,2
2015-03-04T22:14:49.419Z,2
2015-03-04T22:15:07.236Z,2
2015-03-04T22:15:25.566Z,3
2015-03-04T22:15:43.899Z,2
2015-03-04T22:16:02.224Z,2
2015-03-04T22:16:20.557Z,2
2015-03-04T22:16:38.226Z,2
2015-03-04T22:16:56.560Z,2
2015-03-04T22:17:14.893Z,2
2015-03-04T22:17:33.224Z,2
2015-03-04T22:17:51.551Z,2
2015-03-04T22:18:09.887Z,2
2015-03-04T22:18:28.239Z,2
2015-03-04T22:18:46.541Z,2
2015-03-04T22:19:04.876Z,2
2015-03-04T22:19:22.554Z,2
2015-03-04T22:19:40.895Z,2
2015-03-04T22:19:59.360Z,2
2015-03-04T22:20:17.035Z,2
2015-03-04T22:20:35.365Z,2
2015-03-04T22:20:53.699Z,3
2015-03-04T22:21:12.030Z,2
2015-03-04T22:21:30.362Z,2
2015-03-04T22:21:48.693Z,2
2015-03-04T22:22:06.367Z,2
2015-03-04T22:22:24.700Z,2
2015-03-04T22:22:43.027Z,2
2015-03-04T22:23:01.358Z,2
2015-03-04T22:23:19.686Z,2
2015-03-04T22:23:38.008Z,2
2015-03-04T22:23:56.345Z,2
2015-03-04T22:24:14.022Z,2
2015-03-04T22:24:31.697Z,2
2015-03-04T22:24:50.027Z,2
2015-03-04T22:25:08.363Z,2
2015-03-04T22:25:26.699Z,2
2015-03-04T22:25:45.024Z,2
2015-03-04T22:26:03.352Z,2
2015-03-04T22:26:21.682Z,2
2015-03-04T22:26:39.350Z,2
2015-03-04T22:26:57.683Z,2
2015-03-04T22:27:15.358Z,2
2015-03-04T22:27:33.691Z,2
2015-03-04T22:27:52.032Z,2
2015-03-04T22:28:10.348Z,2
2015-03-04T22:28:28.680Z,2
2015-03-04T22:28:46.350Z,2
2015-03-04T22:29:04.684Z,2
2015-03-04T22:29:23.012Z,2
2015-03-04T22:29:41.348Z,2
2015-03-04T22:29:59.682Z,2
2015-03-04T22:30:18.012Z,2
2015-03-04T22:30:36.336Z,2
2015-03-04T22:30:54.668Z,2
2015-03-04T22:31:12.996Z,2
2015-03-04T22:31:30.671Z,2
2015-03-04T22:31:49.002Z,2
2015-03-04T22:32:07.332Z,2
2015-03-04T22:32:25.665Z,2
2015-03-04T22:32:43.338Z,2
2015-03-04T22:33:01.667Z,2
2015-03-04T22:33:19.340Z,2
2015-03-04T22:33:37.672Z,2
2015-03-04T22:33:55.995Z,2
2015-03-04T22:34:14.323Z,2
2015-03-04T22:34:32.652Z,2
2015-03-04T22:34:50.980Z,2
2015-03-04T22:35:09.312Z,2
2015-03-04T22:35:27.644Z,2
2015-03-04T22:35:45.166Z,2
2015-03-04T22:36:03.491Z,2
2015-03-04T22:36:21.822Z,2
2015-03-04T22:36:40.149Z,2
2015-03-04T22:36:58.477Z,2
2015-03-04T22:37:16.812Z,2
2015-03-04T22:37:35.143Z,2
2015-03-04T22:37:53.472Z,2
2015-03-04T22:38:11.800Z,3
2015-03-04T22:38:30.258Z,2
2015-03-04T22:38:48.591Z,2
2015-03-04T22:39:06.274Z,2
2015-03-04T22:39:23.952Z,2
2015-03-04T22:39:41.630Z,2
2015-03-04T22:39:59.961Z,2
2015-03-04T22:40:18.288Z,2
2015-03-04T22:40:36.613Z,3
2015-03-04T22:40:54.298Z,2
2015-03-04T22:41:11.975Z,2
2015-03-04T22:41:30.436Z,3
2015-03-04T22:41:48.119Z,2
2015-03-04T22:42:06.451Z,2
2015-03-04T22:42:24.779Z,2
2015-03-04T22:42:43.110Z,2
2015-03-04T22:43:01.436Z,2
2015-03-04T22:43:19.767Z,2
2015-03-04T22:43:38.095Z,2
2015-03-04T22:43:54.464Z,2
2015-03-04T22:44:12.800Z,2
2015-03-04T22:44:30.610Z,2
2015-03-04T22:44:48.942Z,2
2015-03-04T22:45:07.272Z,2
2015-03-04T22:45:25.597Z,2
2015-03-04T22:45:43.918Z,2
2015-03-04T22:46:01.597Z,3
2015-03-04T22:46:19.933Z,2
2015-03-04T22:46:38.262Z,2
2015-03-04T22:46:56.589Z,3
2015-03-04T22:47:14.924Z,2
2015-03-04T22:47:33.256Z,2
2015-03-04T22:47:51.579Z,3
2015-03-04T22:48:09.905Z,2
2015-03-04T22:48:27.715Z,2
2015-03-04T22:48:46.043Z,2
2015-03-04T22:49:04.371Z,2
2015-03-04T22:49:22.693Z,3
2015-03-04T22:49:40.395Z,2
2015-03-04T22:49:58.720Z,2
2015-03-04T22:50:17.046Z,2
2015-03-04T22:50:35.369Z,2
2015-03-04T22:50:53.697Z,2
2015-03-04T22:51:11.375Z,2
2015-03-04T22:51:29.704Z,2
2015-03-04T22:51:48.030Z,2
2015-03-04T22:52:06.366Z,2
2015-03-04T22:52:24.047Z,2
2015-03-04T22:52:42.377Z,2
2015-03-04T22:53:00.712Z,2
2015-03-04T22:53:19.034Z,2
2015-03-04T22:53:36.714Z,2
2015-03-04T22:53:55.039Z,2
2015-03-04T22:54:13.368Z,2
2015-03-04T22:54:31.700Z,2
2015-03-04T22:54:50.035Z,2
2015-03-04T22:55:08.498Z,2
2015-03-04T22:55:25.513Z,1
2015-03-04T22:55:43.188Z,2
2015-03-04T22:56:01.523Z,2
2015-03-04T22:56:19.854Z,2
2015-03-04T22:56:38.180Z,2
2015-03-04T22:56:56.512Z,2
2015-03-04T22:57:14.846Z,2
2015-03-04T22:57:33.177Z,3
2015-03-04T22:57:51.505Z,2
2015-03-04T22:58:09.836Z,2
2015-03-04T22:58:28.178Z,3
2015-03-04T22:58:46.493Z,2
2015-03-04T22:59:04.826Z,2
2015-03-04T22:59:21.857Z,2
2015-03-04T22:59:40.188Z,2
2015-03-04T22:59:58.521Z,2
2015-03-04T23:00:16.847Z,2
2015-03-04T23:00:35.173Z,2
2015-03-04T23:00:53.501Z,2
2015-03-04T23:01:11.828Z,2
2015-03-04T23:01:30.159Z,2
2015-03-04T23:01:48.484Z,2
2015-03-04T23:02:06.817Z,2
2015-03-04T23:02:25.144Z,2
2015-03-04T23:02:43.469Z,2
2015-03-04T23:03:01.800Z,2
2015-03-04T23:03:19.474Z,3
2015-03-04T23:03:37.147Z,2
2015-03-04T23:03:54.167Z,2
2015-03-04T23:04:12.499Z,2
2015-03-04T23:04:30.827Z,2
2015-03-04T23:04:49.153Z,2
2015-03-04T23:05:07.480Z,2
2015-03-04T23:05:25.809Z,2
2015-03-04T23:05:44.140Z,2
2015-03-04T23:06:01.823Z,2
2015-03-04T23:06:20.153Z,2
2015-03-04T23:06:37.834Z,2
2015-03-04T23:06:56.172Z,2
2015-03-04T23:07:14.500Z,2
2015-03-04T23:07:32.832Z,3
2015-03-04T23:07:50.501Z,2
2015-03-04T23:08:08.832Z,2
2015-03-04T23:08:27.292Z,2
2015-03-04T23:08:45.766Z,2
2015-03-04T23:09:04.087Z,2
2015-03-04T23:09:22.421Z,2
2015-03-04T23:09:40.887Z,3
2015-03-04T23:09:59.221Z,2
2015-03-04T23:10:17.543Z,3
2015-03-04T23:10:35.221Z,2
2015-03-04T23:10:52.891Z,2
2015-03-04T23:11:11.224Z,2
2015-03-04T23:11:29.562Z,2
2015-03-04T23:11:47.891Z,2
2015-03-04T23:12:06.220Z,2
2015-03-04T23:12:24.543Z,2
2015-03-04T23:12:42.870Z,3
2015-03-04T23:13:00.550Z,2
2015-03-04T23:13:18.887Z,2
2015-03-04T23:13:35.905Z,2
2015-03-04T23:13:54.231Z,2
2015-03-04T23:14:12.414Z,3
2015-03-04T23:14:30.747Z,2
2015-03-04T23:14:49.070Z,2
2015-03-04T23:15:07.403Z,2
2015-03-04T23:15:25.210Z,2
2015-03-04T23:15:43.540Z,2
2015-03-04T23:16:01.865Z,2
2015-03-04T23:16:20.197Z,2
2015-03-04T23:16:38.527Z,3
2015-03-04T23:16:56.857Z,2
2015-03-04T23:17:15.187Z,2
2015-03-04T23:17:33.647Z,2
2015-03-04T23:17:51.315Z,2
2015-03-04T23:18:09.641Z,2
2015-03-04T23:18:27.970Z,2
2015-03-04T23:18:46.301Z,2
2015-03-04T23:19:04.634Z,3
2015-03-04T23:19:22.968Z,2
2015-03-04T23:19:41.287Z,2
2015-03-04T23:19:59.619Z,2
2015-03-04T23:20:17.950Z,2
2015-03-04T23:20:35.619Z,3
2015-03-04T23:20:53.950Z,2
2015-03-04T23:21:12.281Z,2
2015-03-04T23:21:30.748Z,2